Latest Weather Observations for Kalumburu

IDW60801

Issued at 4:05 pm WST Friday 31 October 2014 (issued every 30 minutes, with the page automatically refreshed every 10 minutes)

About weather observations | Map of weather stations | Latest weather observations for WA | Other Formats
Station Details ID: 001019 Name: KALUMBURU Lat: -14.30 Lon: 126.65 Height: 23.0 m
Data from the previous 72 hours. | See also: Recent months at Kalumburu
Date/Time
WST
Temp
°C
App
Temp
°C
Dew
Point
Rel
Hum
%
Delta-T
°C
Wind Press
QNH
hPa
Press
MSL
hPa
Rain
since 9 am
mm
Dir
 
Spd
km/h
Gust
km/h
Spd
kts
Gust
kts
31/04:00pm 32.4 33.6 22.5 56 6.8 N 20 32 11 17 1006.9 1006.7 0.0
31/03:30pm 33.6 34.4 21.7 49 8.1 NNW 20 30 11 16 1006.7 1006.5 0.0
31/03:00pm 34.8 35.4 22.8 49 8.3 N 24 35 13 19 1006.4 1006.2 0.0
31/02:30pm 35.0 34.9 22.3 47 8.7 N 26 37 14 20 1006.5 1006.3 0.0
31/02:00pm 35.6 34.7 20.7 41 10.1 N 26 35 14 19 1006.9 1006.7 0.0
31/01:30pm 35.7 35.5 21.2 43 9.8 N 24 35 13 19 1007.2 1007.0 0.0
31/01:00pm 36.1 36.6 22.6 45 9.4 N 24 32 13 17 1007.4 1007.2 0.0
31/12:30pm 36.4 36.6 20.6 39 10.7 N 20 28 11 15 1007.7 1007.5 0.0
31/12:00pm 36.3 36.5 20.1 38 10.9 N 19 26 10 14 1008.2 1008.0 0.0
31/11:30am 35.8 35.4 19.3 38 10.9 N 20 28 11 15 1008.7 1008.5 0.0
31/11:00am 36.2 38.2 20.8 40 10.4 NW 11 20 6 11 1009.1 1008.9 0.0
31/10:30am 35.2 38.5 22.5 47 8.8 W 9 17 5 9 1009.6 1009.4 0.0
31/10:00am 34.2 37.2 21.9 48 8.4 NNW 9 15 5 8 1010.0 1009.8 0.0
31/09:30am 33.0 35.5 21.8 51 7.6 N 11 15 6 8 1010.4 1010.2 0.0
31/09:00am 32.7 36.9 23.1 57 6.6 W 6 9 3 5 1010.8 1010.6 0.0
31/08:30am 31.5 35.6 23.3 61 5.7 WNW 7 13 4 7 1011.2 1011.0 0.0
31/08:00am 30.6 34.5 23.0 64 5.2 N 7 13 4 7 1011.2 1011.0 0.0
31/07:30am 29.9 33.5 23.1 67 4.7 WNW 9 13 5 7 1011.2 1011.0 0.0
31/07:00am 29.3 33.1 23.5 71 4.0 NW 9 15 5 8 1011.0 1010.8 0.0
31/06:30am 28.7 33.1 23.8 75 3.4 N 7 11 4 6 1010.7 1010.5 0.0
31/06:00am 26.8 33.0 24.6 88 1.5 CALM 0 0 0 0 1010.2 1010.0 0.0
31/05:30am 25.4 31.0 23.5 89 1.3 CALM 0 0 0 0 1009.6 1009.4 0.0
31/05:00am 25.2 30.5 23.1 88 1.4 CALM 0 0 0 0 1009.0 1008.8 0.0
31/04:30am 25.2 30.4 22.9 87 1.6 SW 0 0 0 0 1008.6 1008.4 0.0
31/04:00am 25.7 31.0 23.0 85 1.8 SW 0 0 0 0 1008.5 1008.3 0.0
31/03:30am 26.3 31.8 23.4 84 2.0 CALM 0 0 0 0 1008.1 1007.9 0.0
31/03:00am 27.3 32.0 24.0 82 2.3 W 6 9 3 5 1008.0 1007.8 0.0
31/02:30am 27.5 32.0 23.7 80 2.6 W 6 7 3 4 1007.9 1007.7 0.0
31/02:00am 27.7 32.8 24.1 81 2.5 WNW 4 9 2 5 1008.0 1007.8 0.0
31/01:30am 27.6 32.1 24.0 81 2.5 NW 7 9 4 5 1008.0 1007.8 0.0
31/01:00am 27.8 32.1 24.2 81 2.5 NNW 9 13 5 7 1008.1 1007.9 0.0
31/12:30am 28.0 32.3 24.2 80 2.6 NW 9 13 5 7 1008.5 1008.3 0.0
31/12:00am 28.1 32.3 24.1 79 2.8 NW 9 13 5 7 1008.7 1008.5 0.0
 
Date/Time
WST
Temp
°C
App
Temp
°C
Dew
Point
Rel
Hum
%
Delta-T
°C
Wind Press
QNH
hPa
Press
MSL
hPa
Rain
since 9 am
mm
Dir
 
Spd
km/h
Gust
km/h
Spd
kts
Gust
kts
30/11:30pm 28.3 32.4 23.9 77 3.0 NW 9 13 5 7 1009.1 1008.9 0.0
30/11:00pm 28.5 33.2 24.3 78 2.9 NNW 7 9 4 5 1009.4 1009.2 0.0
30/10:30pm 28.4 33.2 24.2 78 2.9 NW 6 9 3 5 1009.6 1009.4 0.0
30/10:00pm 28.6 32.9 24.2 77 3.1 NNW 9 15 5 8 1009.8 1009.6 0.0
30/09:30pm 28.7 33.0 24.3 77 3.1 NNW 9 13 5 7 1009.9 1009.7 0.0
30/09:00pm 28.7 33.2 24.0 76 3.3 N 7 9 4 5 1009.8 1009.6 0.0
30/08:30pm 29.1 33.2 23.3 71 4.0 NNW 7 11 4 6 1009.3 1009.1 0.0
30/08:00pm 29.5 32.7 23.0 68 4.5 NW 11 15 6 8 1009.0 1008.8 0.0
30/07:30pm 29.8 33.4 23.0 67 4.7 NNW 9 13 5 7 1008.6 1008.4 0.0
30/07:00pm 30.1 33.5 23.3 67 4.7 WNW 11 17 6 9 1008.5 1008.3 0.0
30/06:30pm 30.6 34.1 23.5 66 4.9 NW 11 17 6 9 1008.2 1008.0 0.0
30/06:00pm 30.8 34.4 23.7 66 4.9 N 11 17 6 9 1007.8 1007.6 0.0
30/05:30pm 31.0 34.0 23.4 64 5.2 N 13 19 7 10 1007.6 1007.4 0.0
30/05:00pm 31.6 33.3 23.4 61 5.7 N 20 28 11 15 1007.1 1006.9 0.0
30/04:30pm 32.1 33.4 23.3 59 6.1 N 22 30 12 16 1006.6 1006.4 0.0
30/04:00pm 33.3 33.7 22.4 52 7.5 N 24 32 13 17 1006.4 1006.2 0.0
30/03:30pm 33.5 33.8 22.3 52 7.7 N 24 32 13 17 1006.2 1006.0 0.0
30/03:00pm 34.5 35.2 21.5 46 8.9 N 20 28 11 15 1006.2 1006.0 0.0
30/02:30pm 36.2 36.5 20.8 40 10.4 N 20 26 11 14 1006.4 1006.2 0.0
30/02:00pm 36.0 36.4 20.7 41 10.3 N 19 28 10 15 1006.6 1006.4 0.0
30/01:30pm 35.9 34.9 18.0 34 11.7 N 20 30 11 16 1006.8 1006.6 0.0
30/01:00pm 35.2 35.6 20.7 42 9.8 NNW 19 28 10 15 1007.3 1007.1 0.0
30/12:30pm 35.6 37.4 21.8 44 9.4 NNW 15 22 8 12 1007.7 1007.5 0.0
30/12:00pm 33.2 36.2 22.6 53 7.3 NNW 11 15 6 8 1008.3 1008.1 0.0
30/11:30am 36.0 37.4 22.5 45 9.3 NNW 19 26 10 14 1008.8 1008.6 0.0
30/11:00am 34.9 36.7 23.2 50 8.1 NW 19 28 10 15 1009.4 1009.2 0.0
30/10:30am 34.6 37.7 24.2 54 7.3 NNW 15 24 8 13 1009.7 1009.5 0.0
30/10:00am 33.6 36.1 24.5 59 6.4 NW 19 26 10 14 1010.0 1009.8 0.0
30/09:30am 33.9 37.2 23.9 56 7.0 NNW 13 20 7 11 1010.5 1010.3 0.0
30/09:00am 34.3 38.1 22.7 50 8.0 NE 7 11 4 6 1010.8 1010.6 0.6
30/08:30am 32.1 35.4 22.5 57 6.6 N 9 13 5 7 1011.1 1010.9 0.6
30/08:00am 30.8 34.5 23.2 64 5.2 N 9 13 5 7 1011.3 1011.1 0.6
30/07:30am 30.0 33.7 23.9 70 4.2 NNE 11 17 6 9 1011.3 1011.1 0.6
30/07:00am 29.3 33.2 24.2 74 3.5 NNE 11 15 6 8 1011.1 1010.9 0.6
30/06:30am 27.2 31.9 23.9 82 2.3 NNE 6 7 3 4 1010.6 1010.4 0.6
30/06:00am 25.7 31.5 23.9 90 1.2 CALM 0 0 0 0 1009.9 1009.7 0.6
30/05:30am 24.1 29.0 22.4 90 1.1 CALM 0 0 0 0 1009.6 1009.4 0.6
30/05:00am 23.6 28.2 21.7 89 1.3 CALM 0 0 0 0 1009.4 1009.2 0.6
30/04:30am 23.8 28.6 22.1 90 1.1 CALM 0 0 0 0 1009.2 1009.0 0.6
30/04:00am 23.7 28.4 22.0 90 1.1 CALM 0 0 0 0 1008.9 1008.7 0.6
30/03:30am 23.5 27.9 21.4 88 1.4 CALM 0 0 0 0 1008.7 1008.5 0.6
30/03:00am 23.7 28.2 21.6 88 1.4 CALM 0 0 0 0 1008.6 1008.4 0.6
30/02:30am 24.0 28.8 22.1 89 1.3 CALM 0 0 0 0 1008.4 1008.2 0.6
30/02:00am 23.6 28.1 21.5 88 1.4 CALM 0 0 0 0 1008.7 1008.5 0.6
30/01:30am 23.7 28.1 21.4 87 1.5 CALM 0 0 0 0 1008.9 1008.7 0.6
30/01:00am 23.9 28.2 21.2 85 1.8 CALM 0 0 0 0 1009.0 1008.8 0.6
30/12:30am 23.9 27.8 21.2 85 1.8 SSE 2 6 1 3 1009.2 1009.0 0.6
30/12:00am 24.1 27.4 21.4 85 1.8 S 6 7 3 4 1009.4 1009.2 0.6
 
Date/Time
WST
Temp
°C
App
Temp
°C
Dew
Point
Rel
Hum
%
Delta-T
°C
Wind Press
QNH
hPa
Press
MSL
hPa
Rain
since 9 am
mm
Dir
 
Spd
km/h
Gust
km/h
Spd
kts
Gust
kts
29/11:30pm 24.0 27.1 21.1 84 1.9 S 6 7 3 4 1009.7 1009.5 0.6
29/11:00pm 24.5 28.8 21.2 82 2.2 CALM 0 0 0 0 1010.1 1009.9 0.6
29/10:30pm 25.0 29.6 21.7 82 2.2 CALM 0 0 0 0 1010.4 1010.2 0.6
29/10:00pm 25.0 29.5 21.5 81 2.3 CALM 0 0 0 0 1010.9 1010.7 0.6
29/09:30pm 25.6 29.9 21.1 76 3.0 CALM 0 0 0 0 1011.1 1010.9 0.6
29/09:00pm 26.8 29.8 20.9 70 3.9 S 6 7 3 4 1011.3 1011.1 0.6
29/08:30pm 27.6 30.7 21.4 69 4.1 S 7 11 4 6 1011.2 1011.0 0.6
29/08:00pm 27.3 31.0 22.3 74 3.4 S 6 9 3 5 1011.0 1010.8 0.6
29/07:30pm 27.2 31.9 21.9 73 3.6 CALM 0 0 0 0 1010.9 1010.7 0.6
29/07:00pm 29.0 32.3 21.5 64 5.0 NNW 6 9 3 5 1010.6 1010.4 0.6
29/06:30pm 29.6 32.6 21.3 61 5.6 NNW 7 11 4 6 1010.5 1010.3 0.6
29/06:00pm 29.5 31.6 18.9 53 6.9 W 6 7 3 4 1010.1 1009.9 0.6
29/05:30pm 30.3 32.6 22.7 64 5.2 N 15 24 8 13 1009.9 1009.7 0.6
29/05:00pm 30.5 31.8 22.7 63 5.3 N 20 30 11 16 1009.6 1009.4 0.6
29/04:30pm 30.6 32.4 22.5 62 5.5 N 17 24 9 13 1009.4 1009.2 0.6
29/04:00pm 30.8 32.8 22.9 62 5.4 N 17 28 9 15 1009.1 1008.9 0.6
29/03:30pm 30.2 32.8 23.9 69 4.4 N 17 26 9 14 1008.8 1008.6 0.6
29/03:15pm 29.5 30.8 21.7 63 5.2 NE 17 26 9 14 1009.1 1008.9 0.2
29/03:00pm 34.5 33.9 20.5 44 9.4 N 24 35 13 19 1008.3 1008.1 0.0
29/02:30pm 35.6 34.7 19.9 39 10.5 N 24 33 13 18 1008.1 1007.9 0.0
29/02:00pm 35.6 34.5 19.5 38 10.7 N 24 33 13 18 1008.2 1008.0 0.0
29/01:30pm 36.4 36.3 21.4 41 10.2 N 24 33 13 18 1008.5 1008.3 0.0
29/01:00pm 35.5 35.9 21.0 42 9.8 N 20 28 11 15 1008.8 1008.6 0.0
29/12:30pm 35.8 35.4 20.1 40 10.5 N 22 32 12 17 1009.4 1009.2 0.0
29/12:00pm 35.9 36.1 20.2 40 10.5 NNW 19 28 10 15 1009.9 1009.7 0.0
29/11:30am 36.7 36.2 17.8 32 12.3 NNW 17 24 9 13 1010.3 1010.1 0.0
29/11:00am 37.0 38.5 18.1 33 12.4 NNW 7 19 4 10 1010.8 1010.6 0.0
29/10:30am 36.8 37.2 16.4 30 13.0 SSW 9 15 5 8 1011.1 1010.9 0.0
29/10:00am 36.0 37.1 17.2 33 12.1 W 7 17 4 9 1011.7 1011.5 0.0
29/09:30am 34.9 35.7 17.2 35 11.4 WSW 9 15 5 8 1012.2 1012.0 0.0
29/09:00am 34.2 36.2 18.7 40 10.1 W 6 13 3 7 1012.5 1012.3 0.0
29/08:30am 33.4 35.7 19.8 44 9.0 W 7 15 4 8 1012.8 1012.6 0.0
29/08:00am 32.0 35.3 21.8 54 6.9 WNW 7 13 4 7 1012.9 1012.7 0.0
29/07:30am 31.1 34.6 22.1 58 6.1 N 7 13 4 7 1012.9 1012.7 0.0
29/07:00am 30.2 34.7 23.9 69 4.4 N 7 9 4 5 1012.6 1012.4 0.0
29/06:30am 28.3 34.4 24.5 80 2.6 CALM 0 0 0 0 1012.4 1012.2 0.0
29/06:00am 26.0 32.0 24.2 90 1.2 CALM 0 0 0 0 1012.1 1011.9 0.0
29/05:30am 24.4 29.5 22.7 90 1.1 CALM 0 0 0 0 1011.6 1011.4 0.0
29/05:00am 23.7 28.2 21.6 88 1.4 CALM 0 9 0 5 1011.3 1011.1 0.0
29/04:30am 24.5 29.6 22.6 89 1.3 CALM 0 0 0 0 1010.9 1010.7 0.0
29/04:00am 23.9 27.7 21.6 87 1.5 ENE 4 7 2 4 1010.9 1010.7 0.0
29/03:30am 24.5 29.4 22.4 88 1.4 CALM 0 0 0 0 1010.3 1010.1 0.0
29/03:00am 24.4 29.3 22.3 88 1.4 CALM 0 0 0 0 1010.1 1009.9 0.0
29/02:30am 24.6 29.6 22.5 88 1.4 CALM 0 0 0 0 1009.7 1009.5 0.0
29/02:00am 24.7 29.6 22.4 87 1.5 CALM 0 0 0 0 1009.6 1009.4 0.0
29/01:30am 24.7 29.6 22.4 87 1.5 CALM 0 0 0 0 1009.6 1009.4 0.0
29/01:00am 24.9 29.8 22.4 86 1.7 CALM 0 0 0 0 1009.9 1009.7 0.0
29/12:30am 25.2 30.3 22.7 86 1.7 CALM 0 0 0 0 1010.0 1009.8 0.0
29/12:00am 25.6 30.6 22.5 83 2.1 CALM 0 0 0 0 1010.2 1010.0 0.0
 
Date/Time
WST
Temp
°C
App
Temp
°C
Dew
Point
Rel
Hum
%
Delta-T
°C
Wind Press
QNH
hPa
Press
MSL
hPa
Rain
since 9 am
mm
Dir
 
Spd
km/h
Gust
km/h
Spd
kts
Gust
kts
28/11:30pm 26.0 31.2 22.9 83 2.1 CALM 0 0 0 0 1010.3 1010.1 0.0
28/11:00pm 26.8 32.1 23.1 80 2.5 CALM 0 0 0 0 1010.3 1010.1 0.0
28/10:30pm 27.7 32.6 23.1 76 3.1 SW 2 7 1 4 1010.4 1010.2 0.0
28/10:00pm 28.3 32.2 23.0 73 3.6 W 7 11 4 6 1010.6 1010.4 0.0
28/09:30pm 28.4 32.6 23.1 73 3.6 WNW 6 11 3 6 1010.5 1010.3 0.0
28/09:00pm 28.7 32.1 22.7 70 4.1 NW 9 11 5 6 1010.4 1010.2 0.0
28/08:30pm 28.9 32.8 22.6 69 4.3 WNW 6 9 3 5 1010.4 1010.2 0.0
28/08:00pm 29.4 33.3 22.6 67 4.6 WNW 6 11 3 6 1010.3 1010.1 0.0
28/07:30pm 30.3 33.8 22.2 62 5.5 WNW 7 11 4 6 1010.1 1009.9 0.0
28/07:00pm 30.7 32.5 18.8 49 7.7 N 7 9 4 5 1009.8 1009.6 0.0
28/06:30pm 31.3 32.2 18.3 46 8.4 N 11 15 6 8 1009.4 1009.2 0.0
28/06:00pm 31.8 32.0 17.7 43 9.0 N 13 20 7 11 1009.2 1009.0 0.0
28/05:30pm 32.6 32.3 16.4 37 10.2 N 13 20 7 11 1008.7 1008.5 0.0
28/05:00pm 33.5 32.5 15.5 34 11.3 N 15 20 8 11 1008.5 1008.3 0.0
28/04:30pm 34.3 32.4 15.2 31 11.9 N 19 24 10 13 1007.9 1007.7 0.0

Other Formats:

Comma delimited format used in spreadsheet applications
http://www.bom.gov.au/fwo/IDW60801/IDW60801.94100.axf

JavaScript Object Notation format (JSON) in row-major order
http://www.bom.gov.au/fwo/IDW60801/IDW60801.94100.json